Time;durP1;ratioP1;P1;durP2;ratioP2;P2;SDS_P1;SDS_P2;PMS_P1;PMS_P2;Temp;Humidity;BMP_temperature;BMP_pressure;BME280_temperature;BME280_humidity;BME280_pressure;Samples;Min_cycle;Max_cycle;Signal;HPM_P1;HPM_P2
2022/06/05 00:00:21;;;;;;;3.77;3.40;;;13.30;99.90;;;;;;5014723;28;20698;-69
2022/06/05 00:03:15;;;;;;;4.87;3.50;;;13.20;99.90;;;;;;5014611;28;20168;-69
2022/06/05 00:05:58;;;;;;;5.80;4.20;;;13.10;99.90;;;;;;5035784;28;20417;-68
2022/06/05 00:08:33;;;;;;;4.03;3.60;;;13.10;99.90;;;;;;5034058;28;20501;-68
2022/06/05 00:11:00;;;;;;;6.07;4.43;;;13.10;99.90;;;;;;5034088;28;20451;-68
2022/06/05 00:13:45;;;;;;;3.90;2.97;;;13.10;99.90;;;;;;5034208;28;20935;-68
2022/06/05 00:16:16;;;;;;;7.93;4.03;;;13.00;99.90;;;;;;5033872;28;20432;-69
2022/06/05 00:18:42;;;;;;;4.40;3.93;;;13.00;99.90;;;;;;5033984;28;20877;-68
2022/06/05 00:21:09;;;;;;;6.03;4.10;;;13.00;99.90;;;;;;5034240;28;20410;-68
2022/06/05 00:23:36;;;;;;;5.63;5.03;;;12.90;99.90;;;;;;5034116;28;20980;-68
2022/06/05 00:26:23;;;;;;;5.47;4.33;;;12.90;99.90;;;;;;5033674;28;20815;-68
2022/06/05 00:28:51;;;;;;;4.37;3.83;;;12.80;99.90;;;;;;5034284;28;20780;-69
2022/06/05 00:31:20;;;;;;;6.90;4.23;;;12.80;99.90;;;;;;5033917;28;20417;-69
2022/06/05 00:33:46;;;;;;;5.60;4.17;;;12.80;99.90;;;;;;5034076;28;20425;-68
2022/06/05 00:36:47;;;;;;;6.27;4.77;;;12.70;99.90;;;;;;5032707;28;20414;-69
2022/06/05 00:39:28;;;;;;;5.60;4.43;;;12.70;99.90;;;;;;5010386;28;20470;-68
2022/06/05 00:42:10;;;;;;;5.13;3.77;;;12.70;99.90;;;;;;5034153;28;20979;-68
2022/06/05 00:44:42;;;;;;;8.03;4.40;;;12.60;99.90;;;;;;5033595;28;20437;-69
2022/06/05 00:47:11;;;;;;;4.47;3.83;;;12.50;99.90;;;;;;5033472;28;20465;-68
2022/06/05 00:49:59;;;;;;;5.93;3.97;;;12.50;99.90;;;;;;5034225;28;20422;-68
2022/06/05 00:52:36;;;;;;;4.50;4.07;;;12.50;99.90;;;;;;5033862;28;20417;-68
2022/06/05 00:55:02;;;;;;;6.30;4.77;;;12.50;99.90;;;;;;5033617;28;20889;-68
2022/06/05 00:57:31;;;;;;;5.53;4.67;;;12.50;99.90;;;;;;5033742;28;20398;-68
2022/06/05 01:00:01;;;;;;;6.60;4.83;;;12.40;99.90;;;;;;5032183;28;20468;-69
2022/06/05 01:02:28;;;;;;;5.53;4.53;;;12.40;99.90;;;;;;5034007;28;20472;-69
2022/06/05 01:04:54;;;;;;;5.03;4.53;;;12.30;99.90;;;;;;5033314;28;20406;-69
2022/06/05 01:07:20;;;;;;;6.80;5.00;;;12.30;99.90;;;;;;5034487;28;20407;-69
2022/06/05 01:09:48;;;;;;;4.40;4.00;;;12.20;99.90;;;;;;5034597;28;20187;-69
2022/06/05 01:12:17;;;;;;;6.30;4.57;;;12.20;99.90;;;;;;5035554;28;20406;-69
2022/06/05 01:14:53;;;;;;;7.87;5.00;;;12.20;99.90;;;;;;5033909;28;20778;-69
2022/06/05 01:17:22;;;;;;;7.17;5.00;;;12.10;99.90;;;;;;5034571;28;20777;-69
2022/06/05 01:20:03;;;;;;;4.43;3.70;;;12.10;99.90;;;;;;5038187;28;20454;-69
2022/06/05 01:22:53;;;;;;;7.00;4.73;;;12.10;99.90;;;;;;5036457;28;20896;-69
2022/06/05 01:25:36;;;;;;;8.20;5.60;;;12.00;99.90;;;;;;5033955;28;20399;-69
2022/06/05 01:28:16;;;;;;;6.83;5.10;;;12.00;99.90;;;;;;5033156;28;20438;-69
2022/06/05 01:30:57;;;;;;;9.43;4.43;;;12.00;99.90;;;;;;5032859;28;20453;-69
2022/06/05 01:33:28;;;;;;;7.80;4.53;;;12.00;99.90;;;;;;5032869;28;20965;-69
2022/06/05 01:36:22;;;;;;;4.63;4.00;;;12.00;99.90;;;;;;5033182;28;20445;-69
2022/06/05 01:39:14;;;;;;;5.63;4.43;;;11.90;99.90;;;;;;5034102;28;20457;-70
2022/06/05 01:41:54;;;;;;;7.03;4.40;;;11.90;99.90;;;;;;5034353;28;20434;-70
2022/06/05 01:44:27;;;;;;;6.07;5.47;;;11.90;99.90;;;;;;5034004;28;20445;-70
2022/06/05 01:46:57;;;;;;;6.90;4.93;;;11.90;99.90;;;;;;5031118;28;21244;-69
2022/06/05 01:49:36;;;;;;;6.27;5.57;;;11.90;99.90;;;;;;5032799;28;20425;-69
2022/06/05 01:52:20;;;;;;;6.93;4.77;;;11.90;99.90;;;;;;5032460;28;20509;-70
2022/06/05 01:54:54;;;;;;;9.00;6.33;;;11.90;99.90;;;;;;5031409;28;20871;-69
2022/06/05 01:57:22;;;;;;;9.60;6.20;;;11.80;99.90;;;;;;5033084;28;20413;-70
2022/06/05 01:59:52;;;;;;;6.43;5.43;;;11.80;99.90;;;;;;5053747;23;20974;-71
2022/06/05 02:02:28;;;;;;;5.27;4.70;;;11.80;99.90;;;;;;5031602;28;20464;-72
2022/06/05 02:05:04;;;;;;;8.10;5.57;;;11.70;99.90;;;;;;5031745;28;20405;-72
2022/06/05 02:07:36;;;;;;;7.37;5.37;;;11.70;99.90;;;;;;5032103;28;20925;-72
2022/06/05 02:10:14;;;;;;;6.70;5.57;;;11.70;99.90;;;;;;5037143;28;20414;-73
2022/06/05 02:12:40;;;;;;;6.57;5.30;;;11.70;99.90;;;;;;5051810;28;20408;-73
2022/06/05 02:15:06;;;;;;;6.17;4.97;;;11.60;99.90;;;;;;5051559;28;20776;-72
2022/06/05 02:17:34;;;;;;;10.53;6.00;;;11.60;99.90;;;;;;5051825;28;20253;-73
2022/06/05 02:20:00;;;;;;;8.57;5.97;;;11.60;99.90;;;;;;5051842;28;20484;-72
2022/06/05 02:22:36;;;;;;;7.63;5.30;;;11.60;99.90;;;;;;5051692;28;20907;-72
2022/06/05 02:25:02;;;;;;;6.17;5.27;;;11.60;99.90;;;;;;5051744;28;20784;-72
2022/06/05 02:27:27;;;;;;;6.27;4.93;;;11.50;99.90;;;;;;5051703;28;20402;-72
2022/06/05 02:29:55;;;;;;;10.33;5.97;;;11.50;99.90;;;;;;5051792;28;20421;-72
2022/06/05 02:32:29;;;;;;;6.47;5.20;;;11.40;99.90;;;;;;5051621;28;20167;-72
2022/06/05 02:35:22;;;;;;;7.40;6.47;;;11.50;99.90;;;;;;5051768;28;20415;-72
2022/06/05 02:38:09;;;;;;;9.53;6.13;;;11.50;99.90;;;;;;5051535;28;20455;-71
2022/06/05 02:40:50;;;;;;;8.50;5.20;;;11.50;99.90;;;;;;5051662;28;20422;-71
2022/06/05 02:43:29;;;;;;;7.43;5.07;;;11.40;99.90;;;;;;5052236;28;21096;-72
2022/06/05 02:46:13;;;;;;;7.53;6.57;;;11.40;99.90;;;;;;5051302;28;20749;-71
2022/06/05 02:48:44;;;;;;;6.70;4.50;;;11.40;99.90;;;;;;5051791;28;20441;-73
2022/06/05 02:51:13;;;;;;;9.13;5.50;;;11.40;99.90;;;;;;5051604;28;20998;-72
2022/06/05 02:53:54;;;;;;;9.50;5.80;;;11.30;99.90;;;;;;5051529;28;20389;-72
2022/06/05 02:56:20;;;;;;;9.07;5.47;;;11.40;99.90;;;;;;5051078;28;20397;-71
2022/06/05 02:58:47;;;;;;;8.00;6.03;;;11.40;99.90;;;;;;5051428;28;20745;-71
2022/06/05 03:03:58;;;;;;;7.80;5.40;;;11.30;99.90;;;;;;5051473;28;20551;-73
2022/06/05 03:06:24;;;;;;;9.40;5.43;;;11.30;99.90;;;;;;5051531;28;20504;-73
2022/06/05 03:08:49;;;;;;;4.63;4.20;;;11.30;99.90;;;;;;5051569;28;20194;-73
2022/06/05 03:11:15;;;;;;;8.67;6.77;;;11.20;99.90;;;;;;5051618;28;20191;-73
2022/06/05 03:13:40;;;;;;;6.70;4.90;;;11.30;99.90;;;;;;5051682;28;20167;-73
2022/06/05 03:16:08;;;;;;;11.07;6.37;;;11.30;99.90;;;;;;5051187;28;20258;-70
2022/06/05 03:18:34;;;;;;;9.30;6.83;;;11.30;99.90;;;;;;5051391;28;20192;-73
2022/06/05 03:20:59;;;;;;;9.87;6.40;;;11.30;99.90;;;;;;5051281;28;20433;-72
2022/06/05 03:23:26;;;;;;;9.23;6.03;;;11.30;99.90;;;;;;5051206;28;20439;-71
2022/06/05 03:25:51;;;;;;;6.90;4.97;;;11.30;99.90;;;;;;5050804;28;20240;-71
2022/06/05 03:28:17;;;;;;;8.47;6.20;;;11.30;99.90;;;;;;5050929;28;20963;-72
2022/06/05 03:30:43;;;;;;;8.60;6.83;;;11.30;99.90;;;;;;5054468;28;20512;-71
2022/06/05 03:33:10;;;;;;;8.63;5.70;;;11.30;99.90;;;;;;5054655;28;20274;-71
2022/06/05 03:35:37;;;;;;;6.80;5.70;;;11.30;99.90;;;;;;5054468;28;20163;-72
2022/06/05 03:38:04;;;;;;;9.53;6.13;;;11.20;99.90;;;;;;5054722;28;20398;-71
2022/06/05 03:40:30;;;;;;;5.70;4.97;;;11.20;99.90;;;;;;5054474;28;20421;-72
2022/06/05 03:42:56;;;;;;;9.17;5.57;;;11.20;99.90;;;;;;5054322;28;20776;-72
2022/06/05 03:45:21;;;;;;;6.10;5.17;;;11.20;99.90;;;;;;5054423;28;20412;-72
2022/06/05 03:47:47;;;;;;;5.70;5.17;;;11.20;99.90;;;;;;5054570;28;20166;-72
2022/06/05 03:50:14;;;;;;;5.33;4.30;;;11.20;99.90;;;;;;5054301;28;20277;-72
2022/06/05 03:52:41;;;;;;;8.40;5.23;;;11.20;99.90;;;;;;5054241;28;20171;-71
2022/06/05 03:55:07;;;;;;;7.53;4.67;;;11.20;99.90;;;;;;5054063;28;20412;-72
2022/06/05 03:57:33;;;;;;;6.10;5.03;;;11.30;99.90;;;;;;5054058;28;20404;-72
2022/06/05 03:59:58;;;;;;;6.27;5.13;;;11.30;99.90;;;;;;5053787;28;20441;-72
2022/06/05 04:02:25;;;;;;;8.10;6.13;;;11.40;99.90;;;;;;5054108;28;20175;-72
2022/06/05 04:04:51;;;;;;;7.57;5.37;;;11.40;99.90;;;;;;5053837;28;20229;-72
2022/06/05 04:07:17;;;;;;;6.33;5.40;;;11.50;99.90;;;;;;5054321;28;20941;-72
2022/06/05 04:09:43;;;;;;;8.17;5.53;;;11.50;99.90;;;;;;5053859;28;20445;-72
2022/06/05 04:12:08;;;;;;;6.97;5.90;;;11.60;99.90;;;;;;5053742;28;20406;-72
2022/06/05 04:14:34;;;;;;;8.57;5.90;;;11.60;99.90;;;;;;5053529;28;20542;-72
2022/06/05 04:17:00;;;;;;;11.07;6.20;;;11.70;99.90;;;;;;5054139;28;20636;-72
2022/06/05 04:19:25;;;;;;;8.33;5.77;;;12.60;99.90;;;;;;5053865;28;20641;-72
2022/06/05 04:21:51;;;;;;;6.80;5.17;;;13.80;99.90;;;;;;5053690;28;20696;-72
2022/06/05 04:24:17;;;;;;;6.17;4.57;;;14.60;99.90;;;;;;5053803;28;20684;-71
2022/06/05 04:26:43;;;;;;;8.17;4.90;;;15.30;99.90;;;;;;5053345;28;20308;-72
2022/06/05 04:29:09;;;;;;;7.63;3.90;;;15.80;99.90;;;;;;5053361;28;20532;-72
2022/06/05 04:31:38;;;;;;;4.60;4.20;;;16.20;99.90;;;;;;5053429;28;20479;-72
2022/06/05 04:34:08;;;;;;;4.90;4.07;;;16.10;99.90;;;;;;5053685;28;20867;-72
2022/06/05 04:36:34;;;;;;;4.43;4.03;;;16.30;99.90;;;;;;5053360;28;20407;-73
2022/06/05 04:39:00;;;;;;;7.10;4.60;;;16.90;99.90;;;;;;5053479;28;20410;-72
2022/06/05 04:41:26;;;;;;;4.40;3.97;;;16.50;99.90;;;;;;5051946;28;20193;-73
2022/06/05 04:43:52;;;;;;;4.40;4.00;;;16.70;99.90;;;;;;5053138;28;20181;-72
2022/06/05 04:46:20;;;;;;;4.30;3.60;;;16.50;99.90;;;;;;5053126;28;20411;-72
2022/06/05 04:48:46;;;;;;;5.00;4.00;;;15.80;99.90;;;;;;5053217;28;20452;-73
2022/06/05 04:51:15;;;;;;;4.50;3.83;;;15.30;99.90;;;;;;5034022;28;20445;-72
2022/06/05 04:53:42;;;;;;;4.37;3.97;;;15.30;99.90;;;;;;5033990;28;20174;-72
2022/06/05 04:56:18;;;;;;;6.63;4.70;;;15.70;99.90;;;;;;5032893;28;20501;-72
2022/06/05 04:58:44;;;;;;;5.10;4.30;;;16.10;99.90;;;;;;5035677;28;20463;-73
2022/06/05 05:01:18;;;;;;;5.33;4.80;;;16.50;99.90;;;;;;5052313;28;20441;-73
2022/06/05 05:03:44;;;;;;;4.30;3.57;;;17.00;99.90;;;;;;5054385;28;20939;-73
2022/06/05 05:06:10;;;;;;;4.00;3.67;;;17.30;99.90;;;;;;5052903;28;20412;-72
2022/06/05 05:08:36;;;;;;;4.30;3.93;;;17.20;99.90;;;;;;5054027;28;20872;-73
2022/06/05 05:11:02;;;;;;;4.10;3.70;;;17.30;99.90;;;;;;5053701;28;20196;-72
2022/06/05 05:13:27;;;;;;;4.10;3.80;;;17.80;99.90;;;;;;5053806;28;20172;-72
2022/06/05 05:15:55;;;;;;;6.67;4.27;;;17.80;99.90;;;;;;5052707;28;20402;-73
2022/06/05 05:18:21;;;;;;;4.10;3.63;;;18.10;99.90;;;;;;5052956;28;20160;-72
2022/06/05 05:20:47;;;;;;;4.50;3.60;;;18.10;99.90;;;;;;5052826;28;20436;-73
2022/06/05 05:23:12;;;;;;;4.47;3.83;;;17.90;99.90;;;;;;5053501;28;20249;-73
2022/06/05 05:25:38;;;;;;;4.63;3.93;;;18.10;99.90;;;;;;5053326;28;20182;-72
2022/06/05 05:28:08;;;;;;;4.00;3.47;;;18.00;99.90;;;;;;5053413;28;20423;-72
2022/06/05 05:30:34;;;;;;;4.43;4.00;;;18.00;99.90;;;;;;5050773;28;20192;-72
2022/06/05 05:33:00;;;;;;;5.03;4.53;;;18.30;99.90;;;;;;5052880;28;20533;-72
2022/06/05 05:35:26;;;;;;;3.67;3.37;;;18.50;99.90;;;;;;5052252;28;20397;-71
2022/06/05 05:37:51;;;;;;;3.27;2.77;;;18.70;99.90;;;;;;5041117;28;20425;-72
2022/06/05 05:43:01;;;;;;;3.30;3.00;;;19.00;99.90;;;;;;5032308;28;20207;-72
2022/06/05 05:45:27;;;;;;;5.43;3.63;;;18.60;99.90;;;;;;5032143;28;20782;-71
2022/06/05 05:47:52;;;;;;;3.27;3.07;;;18.80;99.90;;;;;;5031988;28;20643;-75
2022/06/05 05:50:18;;;;;;;3.77;3.07;;;19.10;99.90;;;;;;5032154;28;20291;-72
2022/06/05 05:52:44;;;;;;;4.17;3.60;;;19.40;99.90;;;;;;5031802;28;20172;-72
2022/06/05 05:55:13;;;;;;;3.70;3.37;;;19.40;99.90;;;;;;5031793;28;20177;-70
2022/06/05 05:57:39;;;;;;;4.13;3.63;;;18.90;99.90;;;;;;5034976;28;20950;-71
2022/06/05 06:00:09;;;;;;;3.70;2.87;;;19.20;99.90;;;;;;5046814;28;20470;-71
2022/06/05 06:02:35;;;;;;;4.33;3.13;;;20.00;99.90;;;;;;5052172;28;20771;-71
2022/06/05 06:05:00;;;;;;;3.53;3.30;;;20.30;99.90;;;;;;5051612;28;20419;-71
2022/06/05 06:07:26;;;;;;;3.83;3.40;;;20.90;99.90;;;;;;5052069;28;20411;-71
2022/06/05 06:09:52;;;;;;;3.73;3.37;;;20.90;99.90;;;;;;5050348;28;20206;-71
2022/06/05 06:12:17;;;;;;;3.70;3.33;;;20.90;99.90;;;;;;5051175;28;20174;-72
2022/06/05 06:14:43;;;;;;;3.30;3.10;;;21.30;99.90;;;;;;5041897;28;20948;-71
2022/06/05 06:17:09;;;;;;;3.70;3.20;;;21.50;99.90;;;;;;5041251;28;20171;-71
2022/06/05 06:19:35;;;;;;;3.87;3.47;;;22.00;99.90;;;;;;5031904;28;20174;-72
2022/06/05 06:22:01;;;;;;;3.87;2.87;;;21.60;99.90;;;;;;5032898;28;20546;-72
2022/06/05 06:24:27;;;;;;;4.03;3.10;;;21.00;99.90;;;;;;5031741;28;20171;-72
2022/06/05 06:26:52;;;;;;;5.23;3.60;;;21.90;99.90;;;;;;5031677;28;20262;-72
2022/06/05 06:29:18;;;;;;;3.97;3.57;;;21.80;99.90;;;;;;5031692;28;20191;-72
2022/06/05 06:31:43;;;;;;;3.73;3.43;;;22.50;99.90;;;;;;5032990;28;20562;-71
2022/06/05 06:34:09;;;;;;;3.83;3.40;;;21.90;99.90;;;;;;5044456;28;20539;-72
2022/06/05 06:36:35;;;;;;;3.93;2.80;;;22.20;99.90;;;;;;5051863;28;20225;-72
2022/06/05 06:39:03;;;;;;;4.00;3.70;;;22.30;99.90;;;;;;5051470;28;20437;-72
2022/06/05 06:41:28;;;;;;;3.70;3.07;;;23.40;99.90;;;;;;5051350;28;20429;-72
2022/06/05 06:43:54;;;;;;;3.40;3.10;;;23.50;99.40;;;;;;5051449;28;20435;-72
2022/06/05 06:46:20;;;;;;;4.40;3.60;;;23.90;98.80;;;;;;5051164;28;20205;-72
2022/06/05 06:48:46;;;;;;;3.80;3.50;;;23.90;97.70;;;;;;5031531;28;20202;-70
2022/06/05 06:51:13;;;;;;;4.17;3.87;;;24.70;96.90;;;;;;5038431;28;20429;-72
2022/06/05 06:53:40;;;;;;;3.97;3.10;;;25.00;95.80;;;;;;5039575;28;20168;-71
2022/06/05 06:56:12;;;;;;;3.53;3.23;;;24.80;95.20;;;;;;5031057;28;20404;-71
2022/06/05 06:58:39;;;;;;;3.57;3.17;;;24.90;95.30;;;;;;5031513;28;20448;-71
2022/06/05 07:01:04;;;;;;;3.30;3.00;;;25.40;95.10;;;;;;5031546;28;20899;-71
2022/06/05 07:03:30;;;;;;;4.50;3.80;;;24.70;95.50;;;;;;5031419;28;20394;-71
2022/06/05 07:05:56;;;;;;;3.57;3.30;;;24.80;94.70;;;;;;5034977;28;20246;-71
2022/06/05 07:08:22;;;;;;;3.90;3.20;;;24.90;94.40;;;;;;5048897;28;20175;-70
2022/06/05 07:10:48;;;;;;;3.70;3.40;;;24.30;94.90;;;;;;5054835;28;20416;-70
2022/06/05 07:13:13;;;;;;;4.20;3.90;;;23.80;95.30;;;;;;5054515;28;20181;-70
2022/06/05 07:15:39;;;;;;;3.60;3.30;;;24.20;95.90;;;;;;5054636;28;20566;-70
2022/06/05 07:18:06;;;;;;;3.33;3.03;;;25.20;94.70;;;;;;5054800;28;20166;-70
2022/06/05 07:20:34;;;;;;;6.40;3.60;;;25.50;92.70;;;;;;5054747;28;20429;-71
2022/06/05 07:23:01;;;;;;;3.73;3.43;;;26.20;91.40;;;;;;5053990;28;20416;-71
2022/06/05 07:25:27;;;;;;;3.67;3.37;;;26.10;91.60;;;;;;5054697;28;20468;-71
2022/06/05 07:27:52;;;;;;;3.10;2.90;;;25.00;92.50;;;;;;5054601;28;20886;-71
2022/06/05 07:30:18;;;;;;;4.00;3.30;;;25.20;92.30;;;;;;5054599;28;20203;-71
2022/06/05 07:32:43;;;;;;;3.63;3.23;;;25.10;92.30;;;;;;5054442;28;20174;-71
2022/06/05 07:35:12;;;;;;;4.17;3.80;;;26.10;91.70;;;;;;5054425;28;20163;-71
2022/06/05 07:37:38;;;;;;;3.60;3.30;;;26.40;90.60;;;;;;5054652;28;20649;-71
2022/06/05 07:40:04;;;;;;;3.07;2.87;;;27.40;88.60;;;;;;5055038;28;20432;-72
2022/06/05 07:42:30;;;;;;;3.53;3.27;;;25.00;91.80;;;;;;5055064;28;20415;-71
2022/06/05 07:44:55;;;;;;;4.13;3.43;;;25.90;91.10;;;;;;5054907;28;20772;-71
2022/06/05 07:47:21;;;;;;;3.77;3.37;;;26.50;90.30;;;;;;5054936;28;20182;-71
2022/06/05 07:49:46;;;;;;;3.43;3.13;;;26.50;90.10;;;;;;5054203;28;20602;-71
2022/06/05 07:54:56;;;;;;;3.40;3.20;;;27.10;87.50;;;;;;5054329;28;20173;-71
2022/06/05 07:57:22;;;;;;;4.23;3.10;;;28.60;82.90;;;;;;5054134;28;20791;-71
2022/06/05 08:02:18;;;;;;;3.20;2.43;;;27.40;84.20;;;;;;5031481;22;20274;-66
2022/06/05 08:04:44;;;;;;;4.47;3.37;;;26.90;85.70;;;;;;5013656;28;20183;-65
2022/06/05 08:07:11;;;;;;;3.30;3.00;;;27.40;82.70;;;;;;5013488;28;20404;-65
2022/06/05 08:09:39;;;;;;;2.90;2.60;;;26.60;83.90;;;;;;5013571;28;20709;-65
2022/06/05 08:12:07;;;;;;;3.00;2.80;;;26.90;83.10;;;;;;5013383;28;20426;-65
2022/06/05 08:14:35;;;;;;;4.50;3.40;;;26.70;83.90;;;;;;5013300;28;20503;-66
2022/06/05 08:17:01;;;;;;;3.30;2.97;;;27.00;83.10;;;;;;5013576;28;20791;-66
2022/06/05 08:19:27;;;;;;;3.50;3.20;;;26.70;84.80;;;;;;5013238;28;20453;-65
2022/06/05 08:21:53;;;;;;;3.67;3.37;;;27.30;82.30;;;;;;5013034;28;20514;-66
2022/06/05 08:24:19;;;;;;;3.60;3.30;;;26.70;84.00;;;;;;5013194;28;20669;-65
2022/06/05 08:26:45;;;;;;;3.40;2.43;;;27.20;80.20;;;;;;5012981;28;20643;-66
2022/06/05 08:29:11;;;;;;;3.20;2.70;;;27.70;79.30;;;;;;5013276;28;20833;-65
2022/06/05 08:31:37;;;;;;;3.53;2.60;;;27.50;78.70;;;;;;5012932;28;20431;-65
2022/06/05 08:34:04;;;;;;;6.70;2.43;;;26.70;81.20;;;;;;5013034;28;20477;-64
2022/06/05 08:36:30;;;;;;;2.83;2.63;;;27.40;78.50;;;;;;5012903;28;20422;-65
2022/06/05 08:41:59;;;;;;;2.23;2.03;;;26.90;77.80;;;;;;5012791;28;20429;-68
2022/06/05 08:44:40;;;;;;;2.93;2.73;;;26.70;74.80;;;;;;5012828;28;20411;-64
2022/06/05 08:47:31;;;;;;;2.50;2.23;;;28.40;69.50;;;;;;5012917;28;20426;-65
2022/06/05 08:50:45;;;;;;;2.50;2.33;;;28.20;68.70;;;;;;5012826;28;20894;-65
2022/06/05 08:53:22;;;;;;;2.47;2.27;;;27.20;71.80;;;;;;5008911;28;21541;-65
2022/06/05 08:55:51;;;;;;;2.30;2.17;;;27.70;71.00;;;;;;5011127;28;20916;-66
2022/06/05 08:58:36;;;;;;;3.13;2.93;;;28.20;68.60;;;;;;5012738;28;20412;-66
2022/06/05 09:01:07;;;;;;;2.37;2.23;;;28.20;70.10;;;;;;5012511;28;20457;-65
2022/06/05 09:03:56;;;;;;;2.80;2.60;;;29.10;68.00;;;;;;5012704;28;20408;-66
2022/06/05 09:06:40;;;;;;;3.10;2.63;;;27.80;68.50;;;;;;5012336;28;20407;-66
2022/06/05 09:09:15;;;;;;;3.43;3.13;;;28.60;67.70;;;;;;5027368;28;20835;-66
2022/06/05 09:11:58;;;;;;;3.30;2.80;;;27.00;70.50;;;;;;5032045;28;20429;-65
2022/06/05 09:14:34;;;;;;;1.90;1.70;;;27.80;69.50;;;;;;5014017;28;20756;-66
2022/06/05 09:17:10;;;;;;;2.33;2.13;;;28.40;65.30;;;;;;5012748;28;20415;-66
2022/06/05 09:19:35;;;;;;;2.80;2.50;;;28.50;65.80;;;;;;5012296;28;20462;-66
2022/06/05 09:22:33;;;;;;;2.67;2.47;;;27.90;68.90;;;;;;5012022;28;20509;-65
2022/06/05 09:25:14;;;;;;;2.13;2.03;;;27.20;71.00;;;;;;5000593;28;20751;-67
2022/06/05 09:27:57;;;;;;;2.63;2.47;;;28.00;68.90;;;;;;5011940;28;20415;-66
2022/06/05 09:30:46;;;;;;;2.80;2.60;;;29.40;64.90;;;;;;5012316;28;20963;-65
2022/06/05 09:33:27;;;;;;;2.40;2.30;;;28.80;64.80;;;;;;5012280;28;20502;-67
2022/06/05 09:36:04;;;;;;;2.20;2.10;;;27.60;68.20;;;;;;5012359;28;20405;-66
2022/06/05 09:38:54;;;;;;;2.10;2.00;;;28.30;66.80;;;;;;5012386;28;20540;-66
2022/06/05 09:42:17;;;;;;;2.70;2.50;;;28.90;64.40;;;;;;5011720;28;20629;-65
2022/06/05 09:44:50;;;;;;;2.40;2.10;;;29.20;65.00;;;;;;4989747;28;20491;-66
2022/06/05 09:48:12;;;;;;;2.80;2.60;;;29.30;63.00;;;;;;4990288;28;20436;-66
2022/06/05 09:50:38;;;;;;;2.70;2.50;;;29.20;64.40;;;;;;5002199;28;20542;-66
2022/06/05 09:53:03;;;;;;;2.57;2.43;;;27.50;69.30;;;;;;5012272;28;20801;-66
2022/06/05 09:55:55;;;;;;;2.67;2.47;;;28.00;65.40;;;;;;5012009;28;20657;-67
2022/06/05 09:58:27;;;;;;;2.50;2.30;;;28.10;63.40;;;;;;5012114;28;20176;-67
2022/06/05 10:00:59;;;;;;;2.10;2.00;;;27.50;65.80;;;;;;5012157;28;20442;-67
2022/06/05 10:03:35;;;;;;;2.13;2.03;;;27.40;65.60;;;;;;5012160;28;20396;-67
2022/06/05 10:06:24;;;;;;;4.43;2.50;;;27.70;65.50;;;;;;5011912;28;20413;-67
2022/06/05 10:08:55;;;;;;;2.50;2.30;;;27.30;65.50;;;;;;5011767;28;20418;-66
2022/06/05 10:11:43;;;;;;;2.70;2.50;;;27.40;66.80;;;;;;5011792;28;20435;-66
2022/06/05 10:14:35;;;;;;;2.60;2.40;;;27.60;63.20;;;;;;5006115;28;20820;-66
2022/06/05 10:17:38;;;;;;;2.60;2.40;;;27.10;65.20;;;;;;5004516;28;20548;-68
2022/06/05 10:20:20;;;;;;;2.60;2.33;;;26.70;66.40;;;;;;5011909;28;20463;-67
2022/06/05 10:23:11;;;;;;;2.87;2.30;;;26.50;67.10;;;;;;5011723;28;20467;-67
2022/06/05 10:26:06;;;;;;;2.90;2.70;;;26.70;66.90;;;;;;5011256;28;20405;-67
2022/06/05 10:28:38;;;;;;;3.87;3.17;;;26.50;68.20;;;;;;5011835;28;20715;-66
2022/06/05 10:31:23;;;;;;;3.03;2.83;;;26.70;67.60;;;;;;5011609;28;20426;-67
2022/06/05 10:33:53;;;;;;;3.20;2.90;;;25.90;69.00;;;;;;5011591;28;20488;-66
2022/06/05 10:36:25;;;;;;;3.30;3.10;;;25.90;70.40;;;;;;5011918;28;20429;-67
2022/06/05 10:39:11;;;;;;;3.37;3.07;;;26.30;70.00;;;;;;5013026;28;20498;-66
2022/06/05 10:41:52;;;;;;;3.20;3.00;;;25.90;69.80;;;;;;5015297;28;20432;-67
2022/06/05 10:44:36;;;;;;;3.10;2.77;;;26.10;70.20;;;;;;5015192;28;20416;-67
2022/06/05 10:47:19;;;;;;;5.97;3.43;;;26.10;70.30;;;;;;5015064;28;20401;-66
2022/06/05 10:49:47;;;;;;;3.73;3.43;;;26.20;71.20;;;;;;5015128;28;20418;-67
2022/06/05 10:52:39;;;;;;;2.90;2.70;;;26.10;72.00;;;;;;5014749;28;20971;-67
2022/06/05 10:55:19;;;;;;;3.33;3.07;;;26.30;73.00;;;;;;5015107;28;20813;-66
2022/06/05 10:58:24;;;;;;;3.23;2.80;;;25.90;73.20;;;;;;5014665;28;20410;-66
2022/06/05 11:00:49;;;;;;;2.90;2.70;;;26.00;73.30;;;;;;5014601;28;20454;-66
2022/06/05 11:03:35;;;;;;;3.10;2.80;;;26.10;74.20;;;;;;5014742;28;20736;-67
2022/06/05 11:06:19;;;;;;;4.67;3.43;;;26.20;74.50;;;;;;5014573;28;20183;-65
2022/06/05 11:08:56;;;;;;;3.73;3.43;;;26.10;74.90;;;;;;5013532;28;20939;-68
2022/06/05 11:14:30;;;;;;;3.87;3.57;;;25.80;75.90;;;;;;5014794;28;20830;-66
2022/06/05 11:17:18;;;;;;;3.50;3.20;;;25.80;77.10;;;;;;5014683;28;20488;-66
2022/06/05 11:20:05;;;;;;;3.67;3.37;;;26.10;78.20;;;;;;5014510;28;20456;-66
2022/06/05 11:22:31;;;;;;;4.17;3.83;;;26.10;77.30;;;;;;5014407;28;20818;-66
2022/06/05 11:25:11;;;;;;;4.00;3.63;;;25.40;79.10;;;;;;5013036;28;20412;-67
2022/06/05 11:28:01;;;;;;;3.60;3.30;;;25.30;77.60;;;;;;5014682;28;20431;-68
2022/06/05 11:30:30;;;;;;;3.43;3.23;;;25.70;77.90;;;;;;5014522;28;20421;-67
2022/06/05 11:33:11;;;;;;;4.70;3.20;;;25.80;78.30;;;;;;5014440;28;20404;-68
2022/06/05 11:35:55;;;;;;;4.10;3.80;;;25.90;79.30;;;;;;5014100;28;20829;-66
2022/06/05 11:38:58;;;;;;;4.10;3.70;;;26.00;78.80;;;;;;5006225;28;20438;-66
2022/06/05 11:41:29;;;;;;;4.30;3.90;;;26.00;79.40;;;;;;4982818;28;20438;-65
2022/06/05 11:44:37;;;;;;;4.20;3.90;;;26.00;80.60;;;;;;5014177;28;20404;-66
2022/06/05 11:47:10;;;;;;;4.63;3.97;;;26.00;79.60;;;;;;5002982;28;20457;-66
2022/06/05 11:49:48;;;;;;;4.63;4.10;;;26.10;80.70;;;;;;5012916;28;20921;-66
2022/06/05 11:52:33;;;;;;;4.23;3.83;;;26.20;80.20;;;;;;5013795;28;20428;-67
2022/06/05 11:55:14;;;;;;;4.80;4.30;;;26.30;79.90;;;;;;5005763;28;20418;-66
2022/06/05 11:57:59;;;;;;;6.00;5.50;;;26.10;80.40;;;;;;5008397;28;20720;-66
2022/06/05 12:00:47;;;;;;;5.23;4.83;;;26.30;81.00;;;;;;5013348;28;20942;-65
2022/06/05 12:03:36;;;;;;;6.57;3.73;;;26.20;81.00;;;;;;5013960;28;20426;-66
2022/06/05 12:06:13;;;;;;;4.10;3.80;;;26.60;79.20;;;;;;4999648;28;20468;-66
2022/06/05 12:08:50;;;;;;;5.17;3.70;;;26.70;80.20;;;;;;5013584;28;20753;-66
2022/06/05 12:11:19;;;;;;;4.23;3.87;;;26.70;81.10;;;;;;5011990;28;20794;-66
2022/06/05 12:13:53;;;;;;;3.80;3.50;;;26.60;80.20;;;;;;4994052;28;20471;-67
2022/06/05 12:16:28;;;;;;;3.73;3.27;;;26.50;78.60;;;;;;4993047;28;20462;-67
2022/06/05 12:19:01;;;;;;;3.67;2.93;;;26.70;75.90;;;;;;5003926;28;20865;-67
2022/06/05 12:21:47;;;;;;;3.47;3.27;;;26.70;74.70;;;;;;5012140;28;20518;-68
2022/06/05 12:24:22;;;;;;;6.63;5.10;;;26.80;76.30;;;;;;4993609;28;20775;-67
2022/06/05 12:27:08;;;;;;;4.07;3.77;;;26.70;79.60;;;;;;4993426;28;20540;-66
2022/06/05 12:29:56;;;;;;;4.33;4.03;;;26.80;80.10;;;;;;4993634;28;20484;-65
2022/06/05 12:32:38;;;;;;;3.43;3.23;;;26.90;78.80;;;;;;4994074;28;20498;-66
2022/06/05 12:35:27;;;;;;;3.23;3.00;;;26.90;76.00;;;;;;4993395;28;20405;-66
2022/06/05 12:38:18;;;;;;;4.27;3.97;;;27.10;77.60;;;;;;4999644;28;20754;-66
2022/06/05 12:40:55;;;;;;;3.53;3.33;;;26.90;78.10;;;;;;5002446;28;20455;-66
2022/06/05 12:43:30;;;;;;;3.80;3.50;;;27.20;77.90;;;;;;5032433;28;20391;-69
2022/06/05 12:46:06;;;;;;;2.93;2.73;;;27.20;77.10;;;;;;5024168;28;20424;-67
2022/06/05 12:48:34;;;;;;;3.73;3.53;;;27.20;75.30;;;;;;5004799;28;20419;-68
2022/06/05 12:51:26;;;;;;;4.00;3.70;;;27.10;75.00;;;;;;5012456;28;20854;-67
2022/06/05 12:54:01;;;;;;;3.97;3.67;;;27.10;75.70;;;;;;5012615;28;20944;-67
2022/06/05 12:56:43;;;;;;;4.03;3.63;;;27.10;77.70;;;;;;5012265;28;20469;-66
2022/06/05 12:59:17;;;;;;;3.77;3.47;;;27.20;78.90;;;;;;5012317;28;20997;-67
2022/06/05 13:02:18;;;;;;;4.50;3.90;;;27.40;78.00;;;;;;5011491;28;20449;-67
2022/06/05 13:04:51;;;;;;;4.83;3.87;;;27.40;77.20;;;;;;5012049;28;20402;-66
2022/06/05 13:07:20;;;;;;;4.27;3.87;;;27.00;77.30;;;;;;5012281;28;20844;-67
2022/06/05 13:09:56;;;;;;;4.13;3.73;;;27.20;78.70;;;;;;5011974;28;20421;-66
2022/06/05 13:12:29;;;;;;;4.17;3.77;;;27.20;79.20;;;;;;5021235;28;20398;-66
2022/06/05 13:15:16;;;;;;;4.10;3.80;;;27.10;79.30;;;;;;5019057;28;20452;-66
2022/06/05 13:18:18;;;;;;;4.37;4.00;;;27.00;80.00;;;;;;5012141;28;20425;-66
2022/06/05 13:21:12;;;;;;;4.00;3.70;;;27.00;80.10;;;;;;5011908;28;20473;-66
2022/06/05 13:23:47;;;;;;;4.17;3.77;;;26.90;79.70;;;;;;5024545;28;20417;-66
2022/06/05 13:26:32;;;;;;;4.40;4.10;;;27.00;80.20;;;;;;5011850;28;20400;-67
2022/06/05 13:29:08;;;;;;;4.33;4.00;;;27.00;79.90;;;;;;5011889;28;20400;-66
2022/06/05 13:32:02;;;;;;;4.50;4.10;;;27.20;79.30;;;;;;5012133;28;20509;-66
2022/06/05 13:34:34;;;;;;;4.40;4.00;;;27.20;79.40;;;;;;5011745;28;20467;-68